Home > Products > Valid Products > TAF

000
FTUS45 KVEF 180800 AAA
TAFLAS
TAF AMD
KLAS 180846Z 1809/1906 18010KT P6SM FEW150
     FM181300 VRB06KT P6SM FEW150
     FM182100 21013G20KT P6SM SCT150
     FM190200 21012KT P6SM SCT250=



000
FTUS45 KVEF 180800 AAA
TAFLAS
TAF AMD
KLAS 180846Z 1809/1906 18010KT P6SM FEW150
     FM181300 VRB06KT P6SM FEW150
     FM182100 21013G20KT P6SM SCT150
     FM190200 21012KT P6SM SCT250=



000
FTUS45 KVEF 180500
TAFLAS
TAF
KLAS 180528Z 1806/1906 19010KT P6SM SKC
     FM181300 VRB06KT P6SM FEW150
     FM182100 21013G20KT P6SM SCT150
     FM190200 21012KT P6SM SCT250=



000
FTUS45 KVEF 180500
TAFBIH
TAF
KBIH 180528Z 1806/1906 34006KT P6SM SKC
     FM180800 VRB05KT P6SM SKC
     FM181600 16008KT P6SM FEW110
     FM182000 16012G20KT P6SM FEW110
     FM190300 34008KT P6SM SKC=



000
FTUS45 KVEF 180500
TAFEED
TAF
KEED 180528Z 1806/1906 23008KT P6SM FEW100
     FM181000 VRB05KT P6SM FEW100
     FM181900 21008KT P6SM SCT100
     FM190000 25010KT P6SM SCT100=



000
FTUS45 KVEF 180500
TAFVGT
TAF
KVGT 180528Z 1806/1906 18006KT P6SM SKC
     FM180900 VRB05KT P6SM FEW150
     FM181500 13007KT P6SM SCT150
     FM182000 20013G20KT P6SM SCT150
     FM190300 23008KT P6SM SCT250=



000
FTUS45 KVEF 180500
TAFLAS
TAF
KLAS 180528Z 1806/1906 19010KT P6SM SKC
     FM181300 VRB06KT P6SM FEW150
     FM182100 21013G20KT P6SM SCT150
     FM190200 21012KT P6SM SCT250=



000
FTUS45 KVEF 180500
TAFDAG
TAF
KDAG 180528Z 1806/1906 25008KT P6SM SKC
     FM181400 26016G24KT P6SM FEW120=



000
FTUS45 KVEF 180200 AAA
TAFLAS
TAF AMD
KLAS 180250Z 1803/1824 17010KT P6SM SCT100 BKN150
     FM180600 20006KT P6SM SCT150
     FM181300 VRB06KT P6SM FEW150
     FM182100 21013G20KT P6SM SCT250=



000
FTUS45 KVEF 180200 AAA
TAFLAS
TAF AMD
KLAS 180250Z 1803/1824 17010KT P6SM SCT100 BKN150
     FM180600 20006KT P6SM SCT150
     FM181300 VRB06KT P6SM FEW150
     FM182100 21013G20KT P6SM SCT250=



000
FTUS45 KVEF 172300
TAFLAS
TAF
KLAS 172320Z 1800/1824 12007KT P6SM SCT100 BKN150
     FM180200 17010KT P6SM SCT100 BKN150
     FM180600 20006KT P6SM SCT150
     FM181300 VRB06KT P6SM FEW150=



000
FTUS45 KVEF 172300
TAFDAG
TAF
KDAG 172320Z 1800/1824 10010KT P6SM SCT110
     FM180300 25008KT P6SM SKC
     FM181600 09007KT P6SM SKC=



000
FTUS45 KVEF 172300
TAFLAS
TAF
KLAS 172320Z 1800/1824 12007KT P6SM SCT100 BKN150
     FM180200 17010KT P6SM SCT100 BKN150
     FM180600 20006KT P6SM SCT150
     FM181300 VRB06KT P6SM FEW150=



000
FTUS45 KVEF 172300
TAFVGT
TAF
KVGT 172320Z 1800/1824 13007KT P6SM SCT080 BKN150
     FM180600 VRB05KT P6SM SCT150
     FM181800 13007KT P6SM FEW150=



000
FTUS45 KVEF 172300
TAFEED
TAF
KEED 172320Z 1800/1824 15008KT P6SM SCT100 BKN150
     FM180400 24008KT P6SM FEW100 BKN250
     FM181400 VRB05KT P6SM FEW100
     FM181900 15008KT P6SM SCT100=



000
FTUS45 KVEF 172300
TAFBIH
TAF
KBIH 172320Z 1800/1824 16014G24KT P6SM SCT120 SCT250
     FM180300 16010KT P6SM FEW120 BKN250
     FM180600 34006KT P6SM SKC
     FM181900 16010G20KT P6SM FEW110=



000
FTUS45 KVEF 172000 AAA
TAFLAS
TAF AMD
KLAS 172048Z 1721/1818 VRB06KT P6SM FEW100 SCT250
     FM172300 12007KT P6SM SCT080 BKN150
     FM180200 17010KT P6SM SCT080 BKN150
     FM180600 20006KT P6SM SCT150=



000
FTUS45 KVEF 172000 AAA
TAFLAS
TAF AMD
KLAS 172048Z 1721/1818 VRB06KT P6SM FEW100 SCT250
     FM172300 12007KT P6SM SCT080 BKN150
     FM180200 17010KT P6SM SCT080 BKN150
     FM180600 20006KT P6SM SCT150=



000
FTUS45 KVEF 171700
TAFLAS
TAF
KLAS 171729Z 1718/1818 VRB06KT P6SM FEW100 SCT250
     FM172000 12007KT P6SM SCT080 BKN150
     FM180200 17010KT P6SM SCT080 BKN150
     FM180600 20006KT P6SM SCT150=



000
FTUS45 KVEF 171700
TAFBIH
TAF
KBIH 171729Z 1718/1818 34006KT P6SM FEW250
     FM172000 16014G24KT P6SM SCT120 SCT250
     FM180300 16010KT P6SM FEW120 BKN250
     FM180900 34006KT P6SM SKC=



000
FTUS45 KVEF 171700
TAFLAS
TAF
KLAS 171729Z 1718/1818 VRB06KT P6SM FEW100 SCT250
     FM172000 12007KT P6SM SCT080 BKN150
     FM180200 17010KT P6SM SCT080 BKN150
     FM180600 20006KT P6SM SCT150=



000
FTUS45 KVEF 171700
TAFVGT
TAF
KVGT 171729Z 1718/1818 VRB06KT P6SM FEW100 SCT250
     FM172000 13007KT P6SM SCT080 BKN150
     FM180600 VRB05KT P6SM SCT150=



000
FTUS45 KVEF 171700
TAFEED
TAF
KEED 171729Z 1718/1818 VRB05KT P6SM SCT150
     FM172000 15008KT P6SM SCT100 BKN150
     FM180400 24008KT P6SM FEW100 BKN250=



000
FTUS45 KVEF 171700
TAFDAG
TAF
KDAG 171729Z 1718/1818 07006KT P6SM FEW250
     FM172000 10011KT P6SM SCT110
     FM180300 25008KT P6SM SKC=



000
FTUS45 KVEF 171400 AAA
TAFLAS
TAF AMD
KLAS 171455Z 1715/1812 VRB06KT P6SM FEW100 SCT250
     FM172000 12007KT P6SM SCT080 BKN150
     FM180200 17010KT P6SM SCT080 BKN150
     FM180600 20006KT P6SM SCT150=



000
FTUS45 KVEF 171400 AAA
TAFLAS
TAF AMD
KLAS 171455Z 1715/1812 VRB06KT P6SM FEW100 SCT250
     FM172000 12007KT P6SM SCT080 BKN150
     FM180200 17010KT P6SM SCT080 BKN150
     FM180600 20006KT P6SM SCT150=



000
FTUS45 KVEF 171100
TAFEED
TAF
KEED 171127Z 1712/1812 VRB05KT P6SM SCT150
     FM172000 10006KT P6SM SCT100 BKN150
     FM180400 24006KT P6SM FEW100 BKN250=



000
FTUS45 KVEF 171100
TAFBIH
TAF
KBIH 171127Z 1712/1812 34006KT P6SM FEW250
     FM172000 16014G24KT P6SM SCT120 SCT250
     FM180300 16010KT P6SM FEW120 BKN250
     FM180900 34006KT P6SM SKC=



000
FTUS45 KVEF 171100
TAFDAG
TAF
KDAG 171127Z 1712/1812 09006KT P6SM FEW250
     FM172000 10010KT P6SM SCT110
     FM180300 25008KT P6SM SKC=



000
FTUS45 KVEF 171100
TAFLAS
TAF
KLAS 171127Z 1712/1812 VRB06KT P6SM FEW100 SCT250
     FM172000 12007KT P6SM SCT080 BKN150
     FM180200 17010KT P6SM SCT080 BKN150
     FM180600 20006KT P6SM SCT150=



000
FTUS45 KVEF 171100
TAFVGT
TAF
KVGT 171127Z 1712/1812 VRB06KT P6SM FEW100 SCT250
     FM172000 13007KT P6SM SCT080 BKN150
     FM180600 VRB05KT P6SM SCT150=



000
FTUS45 KVEF 170800 AAA
TAFLAS
TAF AMD
KLAS 170847Z 1709/1806 VRB06KT P6SM SCT100 BKN250
     FM172000 12007KT P6SM FEW080 SCT250
     FM180200 17010KT P6SM SCT250=



000
FTUS45 KVEF 170800 AAA
TAFLAS
TAF AMD
KLAS 170847Z 1709/1806 VRB06KT P6SM SCT100 BKN250
     FM172000 12007KT P6SM FEW080 SCT250
     FM180200 17010KT P6SM SCT250=



000
FTUS45 KVEF 170500
TAFVGT
TAF
KVGT 170526Z 1706/1806 17008KT P6SM SCT110 BKN250
     FM170900 VRB05KT P6SM SCT100 SCT250
     FM172000 10006KT P6SM FEW080 SCT250
     FM172300 15006KT P6SM FEW080 SCT250=



000
FTUS45 KVEF 170500
TAFBIH
TAF
KBIH 170526Z 1706/1806 35006KT P6SM SCT250
     FM172000 16018G28KT P6SM SCT250
     FM180300 16010KT P6SM SCT250=



000
FTUS45 KVEF 170500
TAFLAS
TAF
KLAS 170526Z 1706/1806 19010KT P6SM SCT110 BKN250
     FM171400 VRB05KT P6SM SCT100
     FM172000 12007KT P6SM FEW080 SCT250
     FM180200 17010KT P6SM SCT250=



000
FTUS45 KVEF 170500
TAFLAS
TAF
KLAS 170526Z 1706/1806 19010KT P6SM SCT110 BKN250
     FM171400 VRB05KT P6SM SCT100
     FM172000 12007KT P6SM FEW080 SCT250
     FM180200 17010KT P6SM SCT250=



000
FTUS45 KVEF 170500
TAFEED
TAF
KEED 170526Z 1706/1806 24005KT P6SM BKN250
     FM171200 VRB05KT P6SM BKN250
     FM171900 09006KT P6SM FEW100 SCT250
     FM180400 24006KT P6SM FEW100 BKN250=



000
FTUS45 KVEF 170500
TAFDAG
TAF
KDAG 170526Z 1706/1806 10014G22KT P6SM FEW100
     FM170700 27006KT P6SM FEW100 BKN250
     FM171700 01007KT P6SM FEW100 SCT250
     FM172200 10010KT P6SM SCT250
     FM180300 23008KT P6SM SCT250=



000
FTUS45 KVEF 170300 AAB
TAFLAS
TAF AMD
KLAS 170354Z 1704/1724 18020G30KT P6SM SCT110 BKN250
     FM170430 18010KT P6SM SCT110 BKN250
     FM171300 VRB05KT P6SM SCT100
     FM172000 12007KT P6SM FEW080 SCT250=



000
FTUS45 KVEF 170300 AAB
TAFLAS
TAF AMD
KLAS 170354Z 1704/1724 18020G30KT P6SM SCT110 BKN250
     FM170430 18010KT P6SM SCT110 BKN250
     FM171300 VRB05KT P6SM SCT100
     FM172000 12007KT P6SM FEW080 SCT250=



000
FTUS45 KVEF 170200 AAA
TAFLAS
TAF AMD
KLAS 170240Z 1703/1724 18020G30KT P6SM SCT110 BKN250
     FM170330 18010KT P6SM SCT110 BKN250
     FM171300 VRB05KT P6SM SCT100
     FM172000 12007KT P6SM FEW080 SCT250=



000
FTUS45 KVEF 170200 AAA
TAFLAS
TAF AMD
KLAS 170240Z 1703/1724 18020G30KT P6SM SCT110 BKN250
     FM170330 18010KT P6SM SCT110 BKN250
     FM171300 VRB05KT P6SM SCT100
     FM172000 12007KT P6SM FEW080 SCT250=



000
FTUS45 KVEF 170100 AAC
TAFEED
TAF AMD
KEED 170131Z 1702/1724 17010KT P6SM SCT100 BKN150
     FM171000 VRB05KT P6SM SCT100=



000
FTUS45 KVEF 170000 AAA
TAFBIH
TAF AMD
KBIH 170033Z 1701/1724 17007KT P6SM SCT120
     FM170800 32006KT P6SM SCT250
     FM172000 16018G28KT P6SM SCT250=



000
FTUS45 KVEF 170000 AAB
TAFEED
TAF AMD
KEED 170020Z 1700/1724 16010KT P6SM -TSRA FEW020 SCT080 BKN100CB
     FM170200 17010KT P6SM SCT080 BKN150
     FM171000 VRB05KT P6SM SCT100=



000
FTUS45 KVEF 162300 AAA
TAFEED
TAF AMD
KEED 162351Z 1700/1724 12025G40KT 2SM -TSRA FEW005 SCT030 BKN060CB
     FM170200 17010KT P6SM SCT080 BKN150
     FM171000 VRB05KT P6SM SCT100=



000
FTUS45 KVEF 162300 AAA
TAFEED
TAF AMD
KEED 162326Z 1623/1724 18010KT P6SM SCT100 BKN250
     FM170100 12025G40KT 3SM -TSRA SCT030 BKN060CB
     FM170400 19010KT P6SM SCT080 BKN150
     FM171000 VRB05KT P6SM SCT100=



000
FTUS45 KVEF 162300
TAFBIH
TAF
KBIH 162320Z 1700/1724 12012KT P6SM SCT120
     FM170400 16009KT P6SM SCT120
     FM170800 32006KT P6SM SCT250
     FM172000 16018G28KT P6SM SCT250=



000
FTUS45 KVEF 162300
TAFLAS
TAF
KLAS 162320Z 1700/1724 13007KT P6SM SCT110 BKN250
     FM170200 18010KT P6SM SCT110 BKN250
     FM171300 VRB05KT P6SM SCT100
     FM172000 12007KT P6SM FEW080 SCT250=



000
FTUS45 KVEF 162300
TAFDAG
TAF
KDAG 162320Z 1700/1724 10014G22KT P6SM FEW100
     FM170400 27006KT P6SM FEW100 BKN250
     FM171700 01007KT P6SM FEW100 SCT250
     FM172200 10010KT P6SM SCT250=



000
FTUS45 KVEF 162300
TAFEED
TAF
KEED 162320Z 1700/1724 18010KT P6SM SCT100 BKN250
     FM170100 12020G30KT 5SM -TSRA SCT030 BKN080CB
     FM170400 19010KT P6SM SCT080 BKN150
     FM171000 VRB05KT P6SM SCT100=



000
FTUS45 KVEF 162300
TAFVGT
TAF
KVGT 162320Z 1700/1724 12008KT P6SM SCT110 BKN250
     FM170200 17008KT P6SM SCT110 BKN250
     FM170900 VRB05KT P6SM SCT100 SCT250
     FM172000 10006KT P6SM FEW080 SCT250=



000
FTUS45 KVEF 162100 AAA
TAFBIH
TAF AMD
KBIH 162133Z 1622/1718 12012KT P6SM SCT120
     FM170400 16009KT P6SM SCT120
     FM170800 32006KT P6SM SCT250=



000
FTUS45 KVEF 162100 AAA
TAFDAG
TAF AMD
KDAG 162130Z 1622/1718 08014KT P6SM VCTS SCT100CB SCT200
     FM162300 12010KT P6SM SCT100
     FM170400 27006KT P6SM FEW100=



000
FTUS45 KVEF 162000 AAA
TAFLAS
TAF AMD
KLAS 162055Z 1621/1718 13007KT P6SM SCT110 SCT250
     FM162300 17010KT P6SM SCT110
     FM170400 19008KT P6SM SCT110 SCT250
     FM171600 23004KT P6SM SCT250=



000
FTUS45 KVEF 162000 AAA
TAFLAS
TAF AMD
KLAS 162055Z 1621/1718 13007KT P6SM SCT110 SCT250
     FM162300 17010KT P6SM SCT110
     FM170400 19008KT P6SM SCT110 SCT250
     FM171600 23004KT P6SM SCT250=



000
FTUS45 KVEF 161700
TAFLAS
TAF
KLAS 161736Z 1618/1718 07007KT P6SM SCT110
     FM162300 17010KT P6SM SCT110
     FM170600 19008KT P6SM SCT110 SCT250=



000
FTUS45 KVEF 161700
TAFDAG
TAF
KDAG 161736Z 1618/1718 06008KT P6SM SCT100
     FM170400 27006KT P6SM FEW100=



000
FTUS45 KVEF 161700
TAFVGT
TAF
KVGT 161736Z 1618/1718 VRB05KT P6SM SKC
     FM161900 12008KT P6SM SCT110
     FM162200 17008KT P6SM SCT110
     FM170600 VRB05KT P6SM SCT110 SCT250=



000
FTUS45 KVEF 161700
TAFEED
TAF
KEED 161736Z 1618/1718 18010KT P6SM SCT100 BKN250
     FM170000 19010KT P6SM SCT090 BKN150=



000
FTUS45 KVEF 161700
TAFLAS
TAF
KLAS 161736Z 1618/1718 07007KT P6SM SCT110
     FM162300 17010KT P6SM SCT110
     FM170600 19008KT P6SM SCT110 SCT250=



000
FTUS45 KVEF 161700
TAFBIH
TAF
KBIH 161736Z 1618/1718 17008KT P6SM SCT120
     FM162100 17012G20KT P6SM SCT120
     FM170400 16008KT P6SM SCT120
     FM170800 32006KT P6SM SCT250=



000
FTUS45 KVEF 161400 AAA
TAFLAS
TAF AMD
KLAS 161448Z 1615/1712 22007KT P6SM SKC
     FM161600 11007KT P6SM SCT110
     FM162300 17010KT P6SM SCT110
     FM170600 19008KT P6SM SCT110 SCT250=



000
FTUS45 KVEF 161400 AAA
TAFLAS
TAF AMD
KLAS 161448Z 1615/1712 22007KT P6SM SKC
     FM161600 11007KT P6SM SCT110
     FM162300 17010KT P6SM SCT110
     FM170600 19008KT P6SM SCT110 SCT250=



000
FTUS45 KVEF 161100
TAFLAS
TAF
KLAS 161121Z 1612/1712 22007KT P6SM SKC
     FM161400 VRB05KT P6SM FEW110
     FM161700 11007KT P6SM SCT110
     FM162300 17010KT P6SM SCT110
     FM170600 19008KT P6SM SCT110 SCT250=



000
FTUS45 KVEF 161100
TAFBIH
TAF
KBIH 161121Z 1612/1712 33006KT P6SM FEW200
     FM161800 17008KT P6SM SCT120
     FM162100 17012G20KT P6SM SCT120
     FM170400 16008KT P6SM SCT120
     FM170800 32006KT P6SM SCT250=



000
FTUS45 KVEF 161100
TAFDAG
TAF
KDAG 161121Z 1612/1712 27008KT P6SM SKC
     FM161900 06008KT P6SM SCT100
     FM170400 27006KT P6SM FEW100=



000
FTUS45 KVEF 161100
TAFEED
TAF
KEED 161121Z 1612/1712 27008KT P6SM SKC
     FM161800 17010KT P6SM SCT100 BKN250
     FM170000 19010KT P6SM SCT090 BKN150 PROB30 1700/1706 -TSRA
      BKN070CB=



000
FTUS45 KVEF 161100
TAFVGT
TAF
KVGT 161121Z 1612/1712 VRB05KT P6SM SKC
     FM161900 12008KT P6SM SCT110
     FM162200 17008KT P6SM SCT110
     FM170600 VRB05KT P6SM SCT110 SCT250=



000
FTUS45 KVEF 161100
TAFLAS
TAF
KLAS 161121Z 1612/1712 22007KT P6SM SKC
     FM161400 VRB05KT P6SM FEW110
     FM161700 11007KT P6SM SCT110
     FM162300 17010KT P6SM SCT110
     FM170600 19008KT P6SM SCT110 SCT250=



000
FTUS45 KVEF 160800 AAA
TAFLAS
TAF AMD
KLAS 160848Z 1609/1706 22007KT P6SM SKC
     FM161400 VRB05KT P6SM FEW110
     FM161700 11007KT P6SM FEW110
     FM162300 19010KT P6SM FEW110=



000
FTUS45 KVEF 160800 AAA
TAFLAS
TAF AMD
KLAS 160848Z 1609/1706 22007KT P6SM SKC
     FM161400 VRB05KT P6SM FEW110
     FM161700 11007KT P6SM FEW110
     FM162300 19010KT P6SM FEW110=



000
FTUS45 KVEF 160500
TAFLAS
TAF
KLAS 160521Z 1606/1706 21008KT P6SM SKC
     FM161400 VRB05KT P6SM FEW110
     FM161700 11007KT P6SM FEW110
     FM162300 19010KT P6SM FEW110=



000
FTUS45 KVEF 160500
TAFBIH
TAF
KBIH 160521Z 1606/1706 33006KT P6SM FEW200
     FM161900 17010KT P6SM SCT120
     FM162100 17014G20KT P6SM SCT120
     FM170400 16008KT P6SM SCT120=



000
FTUS45 KVEF 160500
TAFLAS
TAF
KLAS 160521Z 1606/1706 21008KT P6SM SKC
     FM161400 VRB05KT P6SM FEW110
     FM161700 11007KT P6SM FEW110
     FM162300 19010KT P6SM FEW110=



000
FTUS45 KVEF 160500
TAFEED
TAF
KEED 160521Z 1606/1706 25008KT P6SM SKC
     FM161800 17010KT P6SM FEW100 BKN250
     FM170000 19010KT P6SM SCT100 BKN250=



000
FTUS45 KVEF 160500
TAFVGT
TAF
KVGT 160521Z 1606/1706 VRB05KT P6SM SKC
     FM161900 10008KT P6SM FEW110
     FM162200 17008KT P6SM FEW110=



000
FTUS45 KVEF 160500
TAFDAG
TAF
KDAG 160521Z 1606/1706 26008KT P6SM SKC
     FM161900 06010KT P6SM FEW100
     FM170400 VRB05KT P6SM FEW100=



000
FTUS45 KVEF 160200 AAA
TAFLAS
TAF AMD
KLAS 160253Z 1603/1624 20008KT P6SM SKC
     FM161400 VRB05KT P6SM FEW110
     FM161700 11007KT P6SM FEW110=



000
FTUS45 KVEF 160200 AAA
TAFLAS
TAF AMD
KLAS 160253Z 1603/1624 20008KT P6SM SKC
     FM161400 VRB05KT P6SM FEW110
     FM161700 11007KT P6SM FEW110=



000
FTUS45 KVEF 152300
TAFLAS
TAF
KLAS 152320Z 1600/1624 15007KT P6SM FEW110
     FM160300 20009KT P6SM SKC
     FM161700 11007KT P6SM FEW110=



000
FTUS45 KVEF 152300
TAFVGT
TAF
KVGT 152320Z 1600/1624 17006KT P6SM FEW110
     FM160300 32005KT P6SM SKC
     FM161900 10008KT P6SM FEW110=



000
FTUS45 KVEF 152300
TAFDAG
TAF
KDAG 152320Z 1600/1624 11010KT P6SM FEW120
     FM160400 26008KT P6SM FEW120
     FM162000 12010KT P6SM FEW100=



000
FTUS45 KVEF 152300
TAFBIH
TAF
KBIH 152320Z 1600/1624 17010KT P6SM FEW120
     FM160700 33006KT P6SM FEW200
     FM161900 17010KT P6SM SCT120=



000
FTUS45 KVEF 152300
TAFEED
TAF
KEED 152320Z 1600/1624 17006KT P6SM FEW100
     FM160300 25008KT P6SM SKC
     FM161200 13010KT P6SM FEW100
     FM162100 19010KT P6SM SCT100=



000
FTUS45 KVEF 152300
TAFLAS
TAF
KLAS 152320Z 1600/1624 15007KT P6SM FEW110
     FM160300 20009KT P6SM SKC
     FM161700 11007KT P6SM FEW110=



000
FTUS45 KVEF 152100 AAA
TAFLAS
TAF AMD
KLAS 152125Z 1521/1618 13007KT P6SM FEW110
     FM160300 20009KT P6SM SKC=



000
FTUS45 KVEF 151700
TAFLAS
TAF
KLAS 151720Z 1518/1618 08006KT P6SM FEW110
     FM152100 13007KT P6SM FEW110
     FM160300 20009KT P6SM SKC=



000
FTUS45 KVEF 151700
TAFBIH
TAF
KBIH 151720Z 1518/1618 33005KT P6SM FEW120
     FM152000 17010KT P6SM FEW120
     FM160700 33006KT P6SM FEW200=



000
FTUS45 KVEF 151700
TAFLAS
TAF
KLAS 151720Z 1518/1618 08006KT P6SM FEW110
     FM152100 13007KT P6SM FEW110
     FM160300 20009KT P6SM SKC=



000
FTUS45 KVEF 151700
TAFVGT
TAF
KVGT 151720Z 1518/1618 12007KT P6SM FEW110
     FM160300 19005KT P6SM SKC
     FM160600 34005KT P6SM SKC=



000
FTUS45 KVEF 151700
TAFEED
TAF
KEED 151720Z 1518/1618 VRB05KT P6SM SKC
     FM151900 17007KT P6SM FEW100
     FM160300 25008KT P6SM SKC=



000
FTUS45 KVEF 151700
TAFDAG
TAF
KDAG 151720Z 1518/1618 05008KT P6SM FEW120
     FM152200 11010KT P6SM FEW120
     FM160400 26008KT P6SM FEW120=



000
FTUS45 KVEF 151400 AAA
TAFLAS
TAF AMD
KLAS 151443Z 1515/1612 VRB05KT P6SM SKC
     FM151800 08006KT P6SM FEW110
     FM152100 13007KT P6SM FEW110
     FM160300 20009KT P6SM SKC=



000
FTUS45 KVEF 151400 AAA
TAFLAS
TAF AMD
KLAS 151443Z 1515/1612 VRB05KT P6SM SKC
     FM151800 08006KT P6SM FEW110
     FM152100 13007KT P6SM FEW110
     FM160300 20009KT P6SM SKC=



000
FTUS45 KVEF 151100
TAFDAG
TAF
KDAG 151132Z 1512/1612 27010KT P6SM SKC
     FM151800 05008KT P6SM FEW120
     FM152200 11010KT P6SM FEW120
     FM160400 26008KT P6SM FEW120=



000
FTUS45 KVEF 151100
TAFVGT
TAF
KVGT 151132Z 1512/1612 33005KT P6SM SKC
     FM151600 12007KT P6SM FEW110
     FM160300 19005KT P6SM SKC
     FM160600 34005KT P6SM SKC=



000
FTUS45 KVEF 151100
TAFLAS
TAF
KLAS 151132Z 1512/1612 VRB05KT P6SM SKC
     FM151700 14007KT P6SM FEW110
     FM160300 20009KT P6SM SKC=



000
FTUS45 KVEF 151100
TAFLAS
TAF
KLAS 151132Z 1512/1612 VRB05KT P6SM SKC
     FM151700 14007KT P6SM FEW110
     FM160300 20009KT P6SM SKC=



000
FTUS45 KVEF 151100
TAFEED
TAF
KEED 151132Z 1512/1612 26007KT P6SM SKC
     FM151400 VRB05KT P6SM SKC
     FM151900 17007KT P6SM FEW100
     FM160300 25008KT P6SM SKC=



000
FTUS45 KVEF 151100
TAFBIH
TAF
KBIH 151132Z 1512/1612 33005KT P6SM FEW120
     FM152000 17010KT P6SM FEW120
     FM160700 33006KT P6SM FEW200=



    US Dept of Commerce
    National Oceanic and Atmospheric Administration
    National Weather Service
    1325 East West Highway
    Silver Spring, MD 20910
    Page Author: NWS Internet Services Team
Disclaimer
Information Quality
Credits
Glossary
Privacy Policy
Freedom of Information Act (FOIA)
About Us
Career Opportunities